Time;durP1;ratioP1;P1;durP2;ratioP2;P2;SDS_P1;SDS_P2;PMS_P1;PMS_P2;Temp;Humidity;BMP_temperature;BMP_pressure;BME280_temperature;BME280_humidity;BME280_pressure;Samples;Min_cycle;Max_cycle;Signal;HPM_P1;HPM_P2
2022/01/15 00:00:00;;;;;;;4.40;2.13;;;17.80;54.20;;;;;;4976068;28;20035;-55
2022/01/15 00:02:26;;;;;;;2.30;1.90;;;17.70;54.10;;;;;;4967187;28;20381;-55
2022/01/15 00:04:51;;;;;;;5.05;1.95;;;17.70;54.00;;;;;;4974482;28;20031;-55
2022/01/15 00:07:17;;;;;;;5.43;1.90;;;17.80;54.10;;;;;;4961871;28;20049;-56
2022/01/15 00:09:44;;;;;;;3.60;2.03;;;17.70;54.00;;;;;;4966243;28;20026;-57
2022/01/15 00:12:10;;;;;;;3.65;2.22;;;17.80;53.90;;;;;;4976862;28;20038;-52
2022/01/15 00:14:40;;;;;;;3.45;2.10;;;17.80;53.90;;;;;;4966761;28;20027;-52
2022/01/15 00:17:08;;;;;;;3.95;1.98;;;17.70;54.00;;;;;;4974026;28;20037;-54
2022/01/15 00:19:43;;;;;;;3.30;1.98;;;17.70;54.10;;;;;;4964830;28;20034;-53
2022/01/15 00:22:12;;;;;;;2.65;1.73;;;17.70;54.20;;;;;;4965634;28;20500;-52
2022/01/15 00:24:38;;;;;;;2.75;1.90;;;17.70;54.30;;;;;;4969997;28;20045;-56
2022/01/15 00:27:04;;;;;;;3.83;1.83;;;17.70;54.30;;;;;;4964668;28;20031;-56
2022/01/15 00:29:31;;;;;;;2.75;1.88;;;17.70;54.40;;;;;;4976226;28;20057;-53
2022/01/15 00:31:57;;;;;;;7.07;2.13;;;17.70;54.40;;;;;;4967980;28;20117;-56
2022/01/15 00:34:22;;;;;;;3.05;1.70;;;17.70;54.40;;;;;;4958224;28;20103;-54
2022/01/15 00:36:48;;;;;;;2.38;1.88;;;17.70;54.50;;;;;;4978980;28;20039;-52
2022/01/15 00:39:13;;;;;;;2.10;1.88;;;17.70;54.50;;;;;;4946617;28;20078;-56
2022/01/15 00:41:39;;;;;;;1.95;1.75;;;17.70;54.40;;;;;;4985593;28;20057;-55
2022/01/15 00:44:05;;;;;;;2.97;2.10;;;17.70;54.40;;;;;;4980524;28;20400;-53
2022/01/15 00:46:30;;;;;;;3.03;1.90;;;17.70;54.40;;;;;;4945175;28;20054;-53
2022/01/15 00:48:56;;;;;;;2.33;1.60;;;17.80;54.50;;;;;;4981132;28;20496;-57
2022/01/15 00:51:21;;;;;;;2.42;1.83;;;17.80;54.50;;;;;;4962269;28;20669;-56
2022/01/15 00:53:47;;;;;;;2.10;1.90;;;17.70;54.50;;;;;;4969248;28;20047;-55
2022/01/15 00:56:12;;;;;;;1.83;1.60;;;17.80;54.50;;;;;;4971461;28;20041;-56
2022/01/15 00:58:38;;;;;;;2.45;1.60;;;17.80;54.50;;;;;;4981821;28;20058;-56
2022/01/15 01:01:03;;;;;;;3.10;2.00;;;17.80;54.50;;;;;;4966535;28;20073;-57
2022/01/15 01:03:29;;;;;;;3.85;1.70;;;17.80;54.40;;;;;;4983295;28;20030;-54
2022/01/15 01:05:54;;;;;;;1.70;1.60;;;17.80;54.40;;;;;;4980077;28;20034;-55
2022/01/15 01:08:20;;;;;;;2.72;1.73;;;17.80;54.40;;;;;;4978732;28;20038;-55
2022/01/15 01:10:52;;;;;;;2.00;1.50;;;17.80;54.50;;;;;;4966413;28;20042;-57
2022/01/15 01:24:14;;;;;;;1.90;1.30;;;17.80;54.40;;;;;;4967459;28;20721;-51
2022/01/15 01:26:46;;;;;;;1.67;1.40;;;17.80;54.30;;;;;;4973123;28;20038;-57
2022/01/15 01:32:05;;;;;;;2.17;1.50;;;17.90;54.30;;;;;;4980625;28;20042;-55
2022/01/15 01:34:34;;;;;;;1.73;1.58;;;17.80;54.30;;;;;;4944034;28;20085;-55
2022/01/15 01:37:07;;;;;;;1.58;1.48;;;17.90;54.30;;;;;;4971483;28;20030;-58
2022/01/15 01:39:56;;;;;;;2.33;1.67;;;17.90;54.30;;;;;;4972418;28;20035;-57
2022/01/15 01:45:13;;;;;;;2.50;1.92;;;17.90;54.40;;;;;;4979347;28;20085;-54
2022/01/15 01:47:40;;;;;;;1.73;1.25;;;17.90;54.40;;;;;;4982138;28;20118;-57
2022/01/15 01:50:26;;;;;;;2.63;1.60;;;17.90;54.30;;;;;;4970054;28;20041;-57
2022/01/15 01:52:56;;;;;;;2.05;1.60;;;17.90;54.40;;;;;;4956895;28;20084;-56
2022/01/15 01:55:23;;;;;;;2.22;1.52;;;17.90;54.30;;;;;;4971256;28;20154;-55
2022/01/15 01:57:49;;;;;;;1.55;1.27;;;17.90;54.30;;;;;;4967526;28;20059;-54
2022/01/15 02:00:15;;;;;;;1.55;1.42;;;17.90;54.30;;;;;;4961061;28;20041;-55
2022/01/15 02:02:41;;;;;;;2.28;1.70;;;17.90;54.30;;;;;;4984301;28;20035;-57
2022/01/15 02:05:07;;;;;;;1.83;1.50;;;17.90;54.20;;;;;;4948226;28;20153;-56
2022/01/15 02:07:33;;;;;;;1.77;1.67;;;17.90;54.20;;;;;;4968252;28;20034;-58
2022/01/15 02:09:59;;;;;;;2.33;1.70;;;17.90;54.20;;;;;;4948529;28;20023;-57
2022/01/15 02:12:24;;;;;;;2.78;1.67;;;17.90;54.10;;;;;;4952959;28;20057;-55
2022/01/15 02:14:50;;;;;;;2.65;1.40;;;17.90;54.00;;;;;;4982091;28;20085;-56
2022/01/15 02:17:21;;;;;;;1.98;1.77;;;17.90;54.10;;;;;;4949729;28;20031;-54
2022/01/15 02:25:16;;;;;;;2.53;1.80;;;17.90;53.90;;;;;;4934895;28;20037;-53
2022/01/15 02:27:42;;;;;;;3.88;1.73;;;17.80;53.70;;;;;;4971378;28;20035;-57
2022/01/15 02:30:08;;;;;;;3.00;2.03;;;17.80;53.70;;;;;;4953781;28;20109;-58
2022/01/15 02:32:34;;;;;;;3.30;1.90;;;17.80;53.70;;;;;;4960016;28;20034;-57
2022/01/15 02:35:01;;;;;;;2.83;1.60;;;17.80;53.70;;;;;;4972071;28;20788;-57
2022/01/15 02:37:28;;;;;;;1.88;1.50;;;17.90;53.70;;;;;;4959040;28;20034;-53
2022/01/15 02:39:54;;;;;;;1.98;1.73;;;17.80;53.60;;;;;;4973094;28;20558;-54
2022/01/15 02:42:20;;;;;;;2.42;1.33;;;17.80;53.70;;;;;;4969285;28;20031;-55
2022/01/15 02:44:45;;;;;;;2.53;1.38;;;17.90;53.80;;;;;;4973668;28;20026;-55
2022/01/15 02:49:55;;;;;;;3.08;1.92;;;17.80;53.90;;;;;;4974272;28;20073;-55
2022/01/15 02:52:20;;;;;;;2.65;1.25;;;17.90;54.00;;;;;;4980141;28;20039;-58
2022/01/15 02:54:46;;;;;;;2.05;1.48;;;17.80;53.90;;;;;;4977217;28;20058;-54
2022/01/15 02:57:11;;;;;;;1.67;1.38;;;17.90;54.00;;;;;;4968876;28;20100;-58
2022/01/15 02:59:37;;;;;;;1.60;1.50;;;17.90;53.90;;;;;;4968843;28;20114;-55
2022/01/15 03:02:02;;;;;;;2.65;1.67;;;17.90;53.90;;;;;;4970131;28;20404;-57
2022/01/15 03:04:28;;;;;;;1.77;1.38;;;17.90;53.90;;;;;;4966829;28;20037;-54
2022/01/15 03:06:54;;;;;;;1.75;1.42;;;17.90;53.90;;;;;;4978895;28;20859;-57
2022/01/15 03:09:19;;;;;;;2.20;1.55;;;17.90;53.80;;;;;;4967632;28;20117;-56
2022/01/15 03:11:45;;;;;;;2.58;1.60;;;17.90;53.80;;;;;;4977189;28;20109;-54
2022/01/15 03:14:12;;;;;;;1.35;1.20;;;17.90;53.70;;;;;;4985896;28;20037;-56
2022/01/15 03:16:38;;;;;;;1.90;1.70;;;17.90;53.70;;;;;;4943798;28;20058;-58
2022/01/15 03:19:03;;;;;;;1.80;1.50;;;17.90;53.70;;;;;;4965929;28;20058;-51
2022/01/15 03:21:29;;;;;;;1.33;1.20;;;17.90;53.60;;;;;;4974398;28;20035;-53
2022/01/15 03:23:54;;;;;;;2.45;1.42;;;17.90;53.60;;;;;;4982850;28;20038;-52
2022/01/15 03:26:20;;;;;;;3.20;1.83;;;17.90;53.50;;;;;;4977049;28;20027;-56
2022/01/15 03:28:45;;;;;;;1.85;1.42;;;17.80;53.40;;;;;;4965279;28;20443;-53
2022/01/15 03:31:11;;;;;;;1.92;1.50;;;17.80;53.40;;;;;;4972382;28;20542;-53
2022/01/15 03:33:37;;;;;;;2.50;1.50;;;17.80;53.40;;;;;;4953046;28;20045;-57
2022/01/15 03:36:02;;;;;;;3.05;1.52;;;17.80;53.30;;;;;;4979555;28;20138;-53
2022/01/15 03:38:28;;;;;;;3.58;1.98;;;17.80;53.30;;;;;;4978837;28;20046;-52
2022/01/15 03:40:54;;;;;;;2.35;1.75;;;17.80;53.20;;;;;;4980544;28;20097;-55
2022/01/15 03:43:20;;;;;;;2.10;1.58;;;17.80;53.20;;;;;;4972559;28;20054;-56
2022/01/15 03:45:45;;;;;;;2.80;1.90;;;17.90;53.20;;;;;;4972650;28;20050;-58
2022/01/15 03:48:11;;;;;;;2.45;1.70;;;17.90;53.10;;;;;;4957069;28;20038;-54
2022/01/15 03:50:36;;;;;;;2.47;1.60;;;17.80;53.00;;;;;;4966340;28;20519;-54
2022/01/15 03:53:02;;;;;;;2.15;1.40;;;17.80;53.10;;;;;;4969271;28;20022;-56
2022/01/15 03:55:27;;;;;;;2.10;1.98;;;17.90;53.00;;;;;;4957665;28;20035;-57
2022/01/15 03:57:53;;;;;;;2.10;1.55;;;17.80;53.00;;;;;;4970141;28;20039;-57
2022/01/15 04:00:21;;;;;;;1.73;1.48;;;17.80;52.90;;;;;;4965081;28;20023;-53
2022/01/15 04:02:48;;;;;;;2.53;1.80;;;17.90;53.00;;;;;;4948636;28;20023;-53
2022/01/15 04:05:13;;;;;;;2.08;1.88;;;17.90;52.90;;;;;;4956107;28;20109;-56
2022/01/15 04:07:39;;;;;;;1.90;1.63;;;17.90;52.90;;;;;;4965031;28;20465;-53
2022/01/15 04:10:05;;;;;;;2.38;1.67;;;17.90;52.80;;;;;;4968857;28;20023;-58
2022/01/15 04:12:31;;;;;;;2.78;1.90;;;17.90;52.80;;;;;;4954833;28;20653;-57
2022/01/15 04:14:56;;;;;;;2.65;1.95;;;17.90;52.80;;;;;;4980275;28;20039;-55
2022/01/15 04:17:22;;;;;;;3.10;1.95;;;17.90;52.80;;;;;;4973117;28;20582;-55
2022/01/15 04:19:47;;;;;;;2.60;1.40;;;17.80;52.80;;;;;;4964533;28;20030;-55
2022/01/15 04:22:13;;;;;;;1.70;1.60;;;17.80;52.80;;;;;;4965511;28;20038;-56
2022/01/15 04:24:38;;;;;;;2.08;1.70;;;17.80;52.80;;;;;;4972545;28;20031;-61
2022/01/15 04:27:04;;;;;;;2.08;1.33;;;17.80;52.80;;;;;;4965699;28;20178;-53
2022/01/15 04:29:32;;;;;;;4.05;2.00;;;17.80;52.80;;;;;;4931931;28;20035;-54
2022/01/15 04:31:58;;;;;;;2.15;1.60;;;17.80;52.70;;;;;;4958100;28;20943;-53
2022/01/15 04:34:27;;;;;;;2.13;1.77;;;17.80;52.70;;;;;;4965512;28;20041;-56
2022/01/15 04:37:03;;;;;;;1.98;1.50;;;17.80;52.80;;;;;;4948107;28;20042;-57
2022/01/15 04:39:28;;;;;;;;;;;17.80;53.40;;;;;;4957852;28;20136;-56
2022/01/15 04:41:54;;;;;;;2.80;1.75;;;17.80;52.80;;;;;;4969080;28;20611;-56
2022/01/15 04:44:20;;;;;;;3.28;2.10;;;17.80;52.80;;;;;;4974283;28;20054;-55
2022/01/15 04:46:45;;;;;;;2.00;1.80;;;17.80;52.90;;;;;;4975144;28;20026;-57
2022/01/15 04:49:11;;;;;;;2.28;1.80;;;17.80;52.80;;;;;;4945635;28;20085;-56
2022/01/15 04:51:36;;;;;;;2.85;1.40;;;17.80;52.80;;;;;;4978599;28;20101;-55
2022/01/15 04:54:03;;;;;;;2.53;1.70;;;17.80;52.80;;;;;;4951191;28;20031;-53
2022/01/15 04:56:29;;;;;;;1.83;1.60;;;17.80;52.70;;;;;;4947369;28;20050;-55
2022/01/15 04:58:55;;;;;;;2.15;1.42;;;17.80;52.60;;;;;;4964485;28;20042;-57
2022/01/15 05:01:20;;;;;;;5.07;1.73;;;17.80;52.60;;;;;;4964479;28;20464;-53
2022/01/15 05:03:46;;;;;;;1.30;1.20;;;17.80;52.60;;;;;;4955629;28;20026;-54
2022/01/15 05:06:12;;;;;;;2.25;1.83;;;17.80;52.60;;;;;;4964813;28;20039;-54
2022/01/15 05:08:39;;;;;;;1.85;1.42;;;17.80;52.50;;;;;;4957157;28;20042;-56
2022/01/15 05:11:13;;;;;;;2.47;1.70;;;17.80;52.40;;;;;;4963412;28;20031;-55
2022/01/15 05:13:39;;;;;;;2.10;1.50;;;17.80;52.40;;;;;;4973350;28;20026;-55
2022/01/15 05:16:05;;;;;;;1.63;1.50;;;17.80;52.40;;;;;;4963181;28;20018;-53
2022/01/15 05:18:30;;;;;;;1.92;1.58;;;17.90;52.30;;;;;;4966716;28;20540;-52
2022/01/15 05:20:58;;;;;;;1.98;1.45;;;17.80;52.30;;;;;;4975168;28;20070;-54
2022/01/15 05:23:23;;;;;;;2.50;1.60;;;17.80;52.30;;;;;;4957735;28;20110;-57
2022/01/15 05:25:49;;;;;;;2.42;1.33;;;17.80;52.30;;;;;;4959343;28;20107;-56
2022/01/15 05:28:14;;;;;;;2.25;1.38;;;17.90;52.40;;;;;;4980040;28;20125;-56
2022/01/15 05:30:40;;;;;;;2.90;1.63;;;17.90;52.40;;;;;;4984704;28;20066;-57
2022/01/15 05:33:05;;;;;;;1.65;1.27;;;17.80;52.30;;;;;;4978273;28;20034;-55
2022/01/15 05:35:31;;;;;;;2.47;1.30;;;17.80;52.30;;;;;;4973239;28;20022;-54
2022/01/15 05:37:57;;;;;;;2.45;1.60;;;17.90;52.30;;;;;;4973022;28;20030;-58
2022/01/15 05:40:23;;;;;;;1.70;1.50;;;17.80;52.20;;;;;;4951090;28;20110;-56
2022/01/15 05:42:48;;;;;;;2.53;1.60;;;17.90;52.20;;;;;;4975081;28;20035;-54
2022/01/15 05:45:14;;;;;;;2.70;1.55;;;17.80;52.30;;;;;;4978601;28;20042;-54
2022/01/15 05:47:39;;;;;;;1.52;1.40;;;17.80;52.40;;;;;;4968919;28;20590;-53
2022/01/15 05:50:06;;;;;;;2.53;1.27;;;17.80;52.60;;;;;;4950882;28;20607;-56
2022/01/15 05:52:31;;;;;;;2.75;1.10;;;17.80;52.80;;;;;;4966323;28;20692;-54
2022/01/15 05:54:57;;;;;;;2.50;1.67;;;17.70;52.80;;;;;;4980352;28;20022;-52
2022/01/15 05:57:22;;;;;;;1.85;1.48;;;17.70;52.90;;;;;;4972490;28;20034;-56
2022/01/15 05:59:51;;;;;;;2.15;1.52;;;17.80;53.00;;;;;;4971271;28;20121;-54
2022/01/15 06:02:17;;;;;;;1.65;1.38;;;17.70;53.00;;;;;;4950491;28;20034;-56
2022/01/15 06:04:43;;;;;;;3.50;1.70;;;17.70;53.00;;;;;;4969810;28;20027;-53
2022/01/15 06:07:09;;;;;;;1.50;1.40;;;17.70;53.00;;;;;;4971034;28;20374;-54
2022/01/15 06:09:34;;;;;;;2.20;1.30;;;17.70;53.10;;;;;;4969131;28;20034;-58
2022/01/15 06:12:01;;;;;;;1.30;1.10;;;17.70;53.10;;;;;;4981666;28;20038;-58
2022/01/15 06:14:27;;;;;;;3.78;1.33;;;17.80;53.20;;;;;;4971043;28;20636;-52
2022/01/15 06:16:52;;;;;;;2.63;1.00;;;17.80;53.20;;;;;;4955495;28;20046;-59
2022/01/15 06:19:18;;;;;;;4.30;1.35;;;17.80;53.20;;;;;;4966426;28;20384;-57
2022/01/15 06:21:43;;;;;;;3.55;1.65;;;17.80;53.20;;;;;;4980138;28;20039;-53
2022/01/15 06:24:09;;;;;;;2.40;1.40;;;17.80;53.20;;;;;;4982145;28;20038;-53
2022/01/15 06:26:34;;;;;;;3.10;1.45;;;17.80;53.50;;;;;;4971424;28;20035;-58
2022/01/15 06:29:00;;;;;;;2.33;1.50;;;17.70;53.20;;;;;;4974949;28;20094;-56
2022/01/15 06:31:28;;;;;;;2.17;1.23;;;17.80;53.90;;;;;;4978328;28;20508;-53
2022/01/15 06:33:53;;;;;;;1.40;1.13;;;17.80;53.20;;;;;;4944832;28;20038;-54
2022/01/15 06:36:20;;;;;;;2.65;1.25;;;17.80;53.20;;;;;;4971920;28;20213;-56
2022/01/15 06:38:47;;;;;;;1.73;1.15;;;17.80;53.30;;;;;;4981624;28;20045;-57
2022/01/15 06:41:12;;;;;;;3.45;1.67;;;17.80;53.20;;;;;;4982743;28;20054;-52
2022/01/15 06:43:38;;;;;;;2.03;1.55;;;17.80;53.20;;;;;;4978979;28;20540;-54
2022/01/15 06:46:03;;;;;;;1.70;1.20;;;17.80;53.20;;;;;;4968169;28;20035;-53
2022/01/15 06:48:30;;;;;;;1.73;1.02;;;17.80;53.20;;;;;;4968068;28;20577;-55
2022/01/15 06:50:55;;;;;;;3.00;1.33;;;17.80;53.10;;;;;;4969083;28;20468;-54
2022/01/15 06:53:22;;;;;;;1.70;1.20;;;17.80;53.00;;;;;;4972352;28;20049;-54
2022/01/15 06:55:50;;;;;;;2.67;1.45;;;17.80;53.00;;;;;;4957459;28;20039;-51
2022/01/15 06:58:16;;;;;;;2.50;1.63;;;17.80;52.90;;;;;;4974978;28;20038;-55
2022/01/15 07:00:42;;;;;;;2.72;1.50;;;17.80;52.80;;;;;;4955935;28;20035;-54
2022/01/15 07:03:07;;;;;;;3.72;1.38;;;17.90;52.80;;;;;;4966395;28;20031;-54
2022/01/15 07:05:33;;;;;;;4.78;1.60;;;17.90;52.70;;;;;;4954994;28;20030;-58
2022/01/15 07:07:58;;;;;;;3.15;1.75;;;17.90;52.50;;;;;;4986181;28;20118;-56
2022/01/15 07:10:24;;;;;;;2.47;1.65;;;17.90;52.50;;;;;;4965863;28;20027;-55
2022/01/15 07:12:49;;;;;;;3.75;1.70;;;17.90;52.40;;;;;;4970937;28;20122;-55
2022/01/15 07:15:15;;;;;;;3.47;1.38;;;17.90;52.30;;;;;;4976768;28;20098;-54
2022/01/15 07:17:42;;;;;;;2.30;1.63;;;18.00;52.30;;;;;;4980900;28;20031;-61
2022/01/15 07:20:08;;;;;;;4.38;1.50;;;18.00;52.20;;;;;;4963893;28;20035;-52
2022/01/15 07:22:34;;;;;;;1.65;1.50;;;18.00;52.10;;;;;;4981213;28;20699;-54
2022/01/15 07:24:59;;;;;;;2.33;1.60;;;18.00;52.00;;;;;;4983040;28;20037;-56
2022/01/15 07:27:25;;;;;;;2.30;1.50;;;18.00;52.00;;;;;;4975058;28;20077;-54
2022/01/15 07:29:50;;;;;;;2.92;1.50;;;18.00;51.90;;;;;;4965262;28;20094;-52
2022/01/15 07:32:16;;;;;;;2.10;1.55;;;18.00;51.90;;;;;;4973070;28;20397;-58
2022/01/15 07:34:41;;;;;;;2.45;1.55;;;18.00;51.90;;;;;;4979383;28;20058;-57
2022/01/15 07:37:07;;;;;;;2.58;1.50;;;18.00;51.90;;;;;;4983301;28;20495;-52
2022/01/15 07:39:35;;;;;;;3.40;1.90;;;18.00;51.90;;;;;;4947950;28;20093;-58
2022/01/15 07:42:00;;;;;;;2.33;1.95;;;18.00;51.90;;;;;;4969774;28;20550;-57
2022/01/15 07:44:26;;;;;;;2.45;1.80;;;18.00;51.80;;;;;;4947724;28;20072;-56
2022/01/15 07:46:53;;;;;;;3.00;1.67;;;18.00;51.80;;;;;;4972274;28;20474;-57
2022/01/15 07:49:18;;;;;;;2.90;1.73;;;18.00;51.80;;;;;;4971803;28;20038;-57
2022/01/15 07:51:44;;;;;;;2.15;1.77;;;18.00;51.90;;;;;;4968003;28;20042;-56
2022/01/15 07:54:09;;;;;;;2.92;2.25;;;18.00;51.90;;;;;;4970681;28;20041;-51
2022/01/15 07:56:35;;;;;;;2.67;1.85;;;17.90;51.90;;;;;;4961607;28;20035;-55
2022/01/15 07:59:00;;;;;;;3.40;1.77;;;17.90;52.10;;;;;;4971101;28;20462;-55
2022/01/15 08:01:28;;;;;;;3.10;1.83;;;17.90;52.50;;;;;;4962402;28;20035;-55
2022/01/15 08:03:53;;;;;;;5.40;1.83;;;17.80;52.70;;;;;;4974177;28;20026;-58
2022/01/15 08:06:19;;;;;;;3.08;1.52;;;17.80;52.80;;;;;;4967414;28;20102;-57
2022/01/15 08:08:44;;;;;;;3.83;1.40;;;17.80;52.90;;;;;;4972934;28;20455;-54
2022/01/15 08:11:10;;;;;;;4.40;2.28;;;17.80;53.00;;;;;;4976605;28;20448;-51
2022/01/15 08:13:35;;;;;;;2.35;1.52;;;17.80;53.00;;;;;;4962443;28;20565;-58
2022/01/15 08:16:04;;;;;;;4.95;1.80;;;17.80;53.20;;;;;;4946588;28;20097;-55
2022/01/15 08:18:31;;;;;;;4.72;1.67;;;17.80;53.30;;;;;;4953536;28;20034;-55
2022/01/15 08:20:57;;;;;;;3.45;1.60;;;17.80;53.30;;;;;;4945285;28;20035;-57
2022/01/15 08:23:22;;;;;;;3.80;1.75;;;17.80;53.40;;;;;;4977744;28;20029;-56
2022/01/15 08:25:48;;;;;;;6.63;2.45;;;17.80;53.70;;;;;;4967126;28;20031;-53
2022/01/15 08:28:14;;;;;;;5.88;1.70;;;17.80;53.40;;;;;;4968922;28;20026;-54
2022/01/15 08:30:39;;;;;;;9.50;2.20;;;17.80;53.40;;;;;;4958487;28;20583;-53
2022/01/15 08:33:04;;;;;;;6.13;1.40;;;17.80;53.30;;;;;;4957072;28;20086;-52
2022/01/15 08:35:30;;;;;;;3.90;1.73;;;17.80;53.20;;;;;;4962447;28;20054;-55
2022/01/15 08:37:57;;;;;;;3.05;1.55;;;17.80;53.20;;;;;;4953548;28;20022;-58
2022/01/15 08:40:24;;;;;;;5.20;1.73;;;17.80;53.80;;;;;;4968624;28;20023;-58
2022/01/15 08:42:49;;;;;;;5.07;1.83;;;17.80;53.20;;;;;;4983070;28;20369;-57
2022/01/15 08:45:15;;;;;;;6.00;1.95;;;17.90;53.30;;;;;;4969940;28;20042;-53
2022/01/15 08:47:41;;;;;;;3.70;1.98;;;17.90;53.40;;;;;;4961355;28;20041;-63
2022/01/15 08:50:08;;;;;;;4.07;1.85;;;17.90;53.30;;;;;;4971665;28;20023;-51
2022/01/15 08:52:35;;;;;;;3.92;1.70;;;17.90;53.30;;;;;;4956252;28;20066;-57
2022/01/15 08:55:01;;;;;;;4.35;1.88;;;17.90;53.10;;;;;;4953633;28;20325;-54
2022/01/15 08:57:27;;;;;;;7.78;1.83;;;17.90;53.00;;;;;;4953057;28;20400;-53
2022/01/15 08:59:53;;;;;;;3.13;1.75;;;18.00;52.90;;;;;;4965018;28;20031;-54
2022/01/15 09:02:18;;;;;;;3.45;1.90;;;18.00;52.90;;;;;;4969850;28;20035;-53
2022/01/15 09:04:44;;;;;;;5.00;1.98;;;18.00;52.80;;;;;;4965874;28;20154;-56
2022/01/15 09:07:10;;;;;;;4.75;1.65;;;18.00;52.70;;;;;;4962128;28;20081;-54
2022/01/15 09:09:35;;;;;;;4.10;1.60;;;18.00;52.60;;;;;;4967360;28;20033;-52
2022/01/15 09:12:01;;;;;;;1.88;1.50;;;18.00;52.60;;;;;;4971851;28;20729;-53
2022/01/15 09:14:26;;;;;;;2.08;1.67;;;18.00;52.50;;;;;;4951712;28;20034;-54
2022/01/15 09:16:52;;;;;;;3.83;1.73;;;18.00;52.50;;;;;;4978685;28;20066;-58
2022/01/15 09:19:18;;;;;;;10.13;2.38;;;18.00;52.40;;;;;;4977485;28;20807;-56
2022/01/15 09:21:43;;;;;;;6.13;2.30;;;17.90;52.40;;;;;;4966254;28;20043;-53
2022/01/15 09:24:09;;;;;;;4.25;2.20;;;17.90;52.50;;;;;;4974295;28;20037;-54
2022/01/15 09:26:47;;;;;;;4.55;2.00;;;17.90;52.70;;;;;;4965484;28;20030;-55
2022/01/15 09:31:57;;;;;;;3.72;2.10;;;17.80;53.00;;;;;;4952388;28;20050;-54
2022/01/15 09:34:23;;;;;;;4.35;2.22;;;17.80;53.00;;;;;;4957072;28;20043;-55
2022/01/15 09:36:48;;;;;;;5.53;2.03;;;17.80;53.10;;;;;;4970701;28;20045;-53
2022/01/15 09:39:14;;;;;;;3.78;2.13;;;17.80;53.10;;;;;;4974950;28;20035;-53
2022/01/15 09:41:43;;;;;;;4.78;2.08;;;17.80;53.10;;;;;;4973861;28;20034;-56
2022/01/15 09:44:09;;;;;;;3.08;1.88;;;17.80;53.20;;;;;;4957326;28;20547;-52
2022/01/15 09:46:34;;;;;;;6.35;2.22;;;17.80;53.20;;;;;;4956161;28;20090;-52
2022/01/15 09:49:00;;;;;;;6.25;2.38;;;17.80;53.20;;;;;;4941377;28;20039;-55
2022/01/15 09:51:26;;;;;;;8.85;5.82;;;17.80;53.20;;;;;;4954785;28;20532;-59
2022/01/15 09:53:52;;;;;;;22.67;10.85;;;17.80;53.40;;;;;;4950597;28;20126;-53
2022/01/15 09:58:47;;;;;;;28.40;14.65;;;17.80;54.10;;;;;;4931259;28;20728;-55
2022/01/15 10:01:12;;;;;;;31.52;14.73;;;17.80;54.20;;;;;;4922439;28;20028;-53
2022/01/15 10:03:38;;;;;;;28.05;14.45;;;17.80;54.40;;;;;;4917471;28;20036;-56
2022/01/15 10:06:04;;;;;;;27.45;14.90;;;17.80;54.70;;;;;;4916017;28;20060;-54
2022/01/15 10:08:30;;;;;;;26.90;13.95;;;17.80;54.90;;;;;;4914898;28;20028;-50
2022/01/15 10:10:58;;;;;;;24.55;13.93;;;17.80;55.20;;;;;;4908574;28;20048;-56
2022/01/15 10:13:25;;;;;;;34.45;14.02;;;17.80;55.20;;;;;;4916025;28;20401;-60
2022/01/15 10:16:00;;;;;;;24.35;12.55;;;17.80;55.30;;;;;;4925017;28;20038;-56
2022/01/15 10:18:26;;;;;;;24.87;12.57;;;17.80;55.30;;;;;;4920159;28;20027;-55
2022/01/15 10:20:53;;;;;;;20.77;11.10;;;17.80;55.40;;;;;;4915788;28;20561;-49
2022/01/15 10:23:20;;;;;;;26.77;12.43;;;17.80;55.20;;;;;;4921001;28;20110;-50
2022/01/15 10:25:48;;;;;;;22.75;11.07;;;17.80;55.10;;;;;;4909289;29;20091;-52
2022/01/15 10:28:13;;;;;;;21.65;10.35;;;17.80;55.10;;;;;;4902202;29;20111;-49
2022/01/15 10:30:41;;;;;;;31.45;12.02;;;17.80;55.50;;;;;;4916103;28;20111;-53
2022/01/15 10:33:08;;;;;;;28.95;11.20;;;17.80;55.70;;;;;;4899639;28;20028;-52
2022/01/15 10:35:34;;;;;;;31.63;10.65;;;17.80;55.80;;;;;;4918065;28;20267;-58
2022/01/15 10:38:15;;;;;;;28.58;10.57;;;17.80;56.00;;;;;;4921782;28;20040;-58
2022/01/15 10:40:53;;;;;;;26.75;10.15;;;17.80;56.00;;;;;;4911672;28;20123;-51
2022/01/15 10:43:19;;;;;;;23.90;8.80;;;17.80;56.00;;;;;;4925067;28;20457;-53
2022/01/15 10:45:50;;;;;;;20.63;9.48;;;17.80;55.90;;;;;;4923006;28;20043;-56
2022/01/15 10:48:40;;;;;;;25.88;7.85;;;17.80;55.90;;;;;;4926655;28;20099;-50
2022/01/15 10:51:11;;;;;;;24.65;8.55;;;17.80;55.90;;;;;;4911452;29;20556;-49
2022/01/15 10:53:37;;;;;;;27.33;8.73;;;17.90;55.80;;;;;;4913995;28;20032;-58
2022/01/15 10:56:06;;;;;;;17.58;7.38;;;17.90;55.60;;;;;;4911191;29;20104;-60
2022/01/15 10:58:32;;;;;;;20.05;6.80;;;17.90;55.50;;;;;;4915552;28;20048;-51
2022/01/15 11:00:57;;;;;;;16.08;6.63;;;17.90;55.40;;;;;;4914065;28;20355;-51
2022/01/15 11:03:24;;;;;;;18.75;6.72;;;17.90;55.40;;;;;;4909642;28;20342;-58
2022/01/15 11:05:50;;;;;;;16.13;5.70;;;17.90;55.40;;;;;;4924473;28;20055;-52
2022/01/15 11:08:15;;;;;;;16.33;6.38;;;17.80;55.20;;;;;;4917585;28;20042;-53
2022/01/15 11:10:53;;;;;;;11.73;5.45;;;17.80;55.10;;;;;;4922002;28;20433;-59
2022/01/15 11:13:24;;;;;;;12.73;5.97;;;17.80;55.10;;;;;;4926536;28;20528;-60
2022/01/15 11:15:54;;;;;;;18.10;6.25;;;17.80;55.00;;;;;;4911996;29;20046;-57
2022/01/15 11:18:24;;;;;;;20.08;5.70;;;17.80;55.00;;;;;;4913321;28;20024;-56
2022/01/15 11:20:52;;;;;;;19.83;5.80;;;17.80;54.90;;;;;;4923400;28;20111;-61
2022/01/15 11:23:19;;;;;;;16.90;5.38;;;17.80;54.90;;;;;;4916452;28;20028;-60
2022/01/15 11:25:45;;;;;;;13.20;5.38;;;17.80;54.80;;;;;;4917795;28;20118;-58
2022/01/15 11:28:10;;;;;;;16.40;5.22;;;17.80;54.70;;;;;;4906669;29;20154;-57
2022/01/15 11:30:36;;;;;;;14.77;4.93;;;17.80;54.60;;;;;;4911357;28;20044;-56
2022/01/15 11:33:01;;;;;;;15.80;5.43;;;17.80;55.20;;;;;;4896310;28;20031;-56
2022/01/15 11:35:41;;;;;;;15.23;5.07;;;17.80;54.70;;;;;;4913957;28;20533;-59
2022/01/15 11:38:07;;;;;;;16.13;5.00;;;17.80;54.80;;;;;;4915335;28;20033;-53
2022/01/15 11:40:37;;;;;;;17.60;5.40;;;17.90;55.10;;;;;;4906849;29;20042;-52
2022/01/15 11:43:24;;;;;;;25.33;5.65;;;17.80;55.50;;;;;;4897257;29;20172;-51
2022/01/15 11:45:57;;;;;;;23.67;6.22;;;17.80;55.00;;;;;;4914837;28;20082;-58
2022/01/15 11:48:30;;;;;;;16.42;5.38;;;17.80;55.20;;;;;;4915990;28;20023;-55
2022/01/15 11:51:13;;;;;;;17.63;4.88;;;17.80;55.40;;;;;;4918158;28;20812;-58
2022/01/15 11:53:49;;;;;;;14.98;4.70;;;17.80;55.40;;;;;;4922272;28;20114;-50
2022/01/15 11:56:15;;;;;;;17.33;5.10;;;17.80;55.50;;;;;;4915435;28;20036;-55
2022/01/15 11:58:40;;;;;;;12.68;4.57;;;17.80;55.60;;;;;;4919536;28;20161;-57
2022/01/15 12:01:06;;;;;;;15.25;5.07;;;17.80;55.70;;;;;;4919836;28;20036;-50
2022/01/15 12:03:38;;;;;;;14.48;4.60;;;17.80;55.70;;;;;;4915495;28;20020;-57
2022/01/15 12:06:04;;;;;;;13.45;4.63;;;17.80;55.80;;;;;;4926998;28;20514;-54
2022/01/15 12:08:30;;;;;;;15.40;4.45;;;17.80;55.70;;;;;;4930229;28;20031;-54
2022/01/15 12:10:56;;;;;;;13.45;4.10;;;17.80;55.70;;;;;;4925479;28;20024;-52
2022/01/15 12:13:23;;;;;;;16.08;4.75;;;17.90;55.70;;;;;;4917948;28;20075;-50
2022/01/15 12:16:19;;;;;;;14.10;4.28;;;17.80;55.60;;;;;;4919806;28;20493;-56
2022/01/15 12:18:53;;;;;;;14.97;4.67;;;17.90;55.50;;;;;;4916987;28;20038;-51
2022/01/15 12:21:44;;;;;;;19.33;5.68;;;17.80;55.30;;;;;;4918484;28;20032;-60
2022/01/15 12:24:49;;;;;;;12.75;4.70;;;17.90;55.40;;;;;;4914842;28;20051;-56
2022/01/15 12:27:16;;;;;;;12.25;4.75;;;17.90;55.40;;;;;;4912857;28;20490;-51
2022/01/15 12:29:42;;;;;;;11.73;3.50;;;17.90;55.40;;;;;;4907277;28;20032;-53
2022/01/15 12:32:07;;;;;;;21.70;4.63;;;17.90;55.40;;;;;;4915055;28;20040;-61
2022/01/15 12:34:33;;;;;;;11.25;4.68;;;17.90;55.30;;;;;;4901483;29;20020;-52
2022/01/15 12:36:59;;;;;;;14.68;4.43;;;17.90;55.40;;;;;;4920632;29;20031;-50
2022/01/15 12:39:35;;;;;;;10.63;3.30;;;17.80;55.30;;;;;;4923316;29;20087;-53
2022/01/15 12:42:01;;;;;;;10.80;4.20;;;17.80;55.40;;;;;;4921460;29;20509;-53
2022/01/15 12:44:27;;;;;;;13.00;4.15;;;17.80;55.40;;;;;;4913990;29;20032;-53
2022/01/15 12:46:57;;;;;;;15.10;3.83;;;17.80;55.40;;;;;;4923063;29;20023;-54
2022/01/15 12:49:34;;;;;;;15.40;4.65;;;17.90;55.40;;;;;;4907276;29;20031;-53
2022/01/15 12:52:26;;;;;;;10.52;3.20;;;17.90;55.40;;;;;;4918973;29;20123;-58
2022/01/15 12:54:57;;;;;;;8.75;3.55;;;17.80;55.40;;;;;;4924516;29;20063;-58
2022/01/15 12:57:41;;;;;;;10.80;3.72;;;17.80;55.50;;;;;;4926287;29;20062;-60
2022/01/15 13:00:28;;;;;;;13.07;4.07;;;17.80;55.50;;;;;;4918532;29;20025;-55
2022/01/15 13:02:55;;;;;;;13.73;4.10;;;17.80;55.30;;;;;;4906862;29;20044;-57
2022/01/15 13:05:23;;;;;;;13.68;4.97;;;17.90;55.30;;;;;;4918931;29;20085;-56
2022/01/15 13:07:51;;;;;;;17.33;5.43;;;17.90;55.10;;;;;;4918153;29;20032;-57
2022/01/15 13:10:43;;;;;;;12.25;5.03;;;17.90;55.00;;;;;;4908533;29;20031;-57
2022/01/15 13:13:08;;;;;;;17.08;6.28;;;17.90;54.90;;;;;;4923981;29;20055;-60